sensor_id;sensor_type;location;lat;lon;timestamp;temperature;humidity
28837;DHT22;50669;50.982;11.022;2022-12-18T00:01:03;-6.80;99.90
28837;DHT22;50669;50.982;11.022;2022-12-18T00:03:35;-6.90;99.90
28837;DHT22;50669;50.982;11.022;2022-12-18T00:06:04;-6.90;99.90
28837;DHT22;50669;50.982;11.022;2022-12-18T00:08:32;-6.90;99.90
28837;DHT22;50669;50.982;11.022;2022-12-18T00:11:04;-6.80;99.90
28837;DHT22;50669;50.982;11.022;2022-12-18T00:13:33;-6.90;99.90
28837;DHT22;50669;50.982;11.022;2022-12-18T00:16:07;-6.90;99.90
28837;DHT22;50669;50.982;11.022;2022-12-18T00:18:34;-6.90;99.90
28837;DHT22;50669;50.982;11.022;2022-12-18T00:21:03;-6.90;99.90
28837;DHT22;50669;50.982;11.022;2022-12-18T00:23:30;-7.00;99.90
28837;DHT22;50669;50.982;11.022;2022-12-18T00:26:00;-7.00;99.90
28837;DHT22;50669;50.982;11.022;2022-12-18T00:28:28;-7.00;99.90
28837;DHT22;50669;50.982;11.022;2022-12-18T00:31:05;-7.10;99.90
28837;DHT22;50669;50.982;11.022;2022-12-18T00:33:31;-7.10;99.90
28837;DHT22;50669;50.982;11.022;2022-12-18T00:36:21;-7.20;99.90
28837;DHT22;50669;50.982;11.022;2022-12-18T00:38:47;-7.20;99.90
28837;DHT22;50669;50.982;11.022;2022-12-18T00:41:15;-7.20;99.90
28837;DHT22;50669;50.982;11.022;2022-12-18T00:44:01;-7.20;99.90
28837;DHT22;50669;50.982;11.022;2022-12-18T00:46:27;-7.20;99.90
28837;DHT22;50669;50.982;11.022;2022-12-18T00:48:52;-7.20;99.90
28837;DHT22;50669;50.982;11.022;2022-12-18T00:51:18;-7.20;99.90
28837;DHT22;50669;50.982;11.022;2022-12-18T00:53:49;-7.20;99.90
28837;DHT22;50669;50.982;11.022;2022-12-18T00:56:17;-7.20;99.90
28837;DHT22;50669;50.982;11.022;2022-12-18T00:58:45;-7.20;99.90
28837;DHT22;50669;50.982;11.022;2022-12-18T01:01:11;-7.20;99.90
28837;DHT22;50669;50.982;11.022;2022-12-18T01:03:36;-7.20;99.90
28837;DHT22;50669;50.982;11.022;2022-12-18T01:06:11;-7.20;99.90
28837;DHT22;50669;50.982;11.022;2022-12-18T01:08:37;-7.20;99.90
28837;DHT22;50669;50.982;11.022;2022-12-18T01:11:11;-7.30;99.90
28837;DHT22;50669;50.982;11.022;2022-12-18T01:13:41;-7.30;99.90
28837;DHT22;50669;50.982;11.022;2022-12-18T01:16:15;-7.20;99.90
28837;DHT22;50669;50.982;11.022;2022-12-18T01:18:43;-7.20;99.90
28837;DHT22;50669;50.982;11.022;2022-12-18T01:21:16;-7.20;99.90
28837;DHT22;50669;50.982;11.022;2022-12-18T01:23:45;-7.20;99.90
28837;DHT22;50669;50.982;11.022;2022-12-18T01:26:12;-7.10;99.90
28837;DHT22;50669;50.982;11.022;2022-12-18T01:28:39;-7.10;99.90
28837;DHT22;50669;50.982;11.022;2022-12-18T01:31:30;-7.10;99.90
28837;DHT22;50669;50.982;11.022;2022-12-18T01:33:56;-7.20;99.90
28837;DHT22;50669;50.982;11.022;2022-12-18T01:36:22;-7.20;99.90
28837;DHT22;50669;50.982;11.022;2022-12-18T01:38:51;-7.20;99.90
28837;DHT22;50669;50.982;11.022;2022-12-18T01:41:20;-7.30;99.90
28837;DHT22;50669;50.982;11.022;2022-12-18T01:43:55;-7.30;99.90
28837;DHT22;50669;50.982;11.022;2022-12-18T01:46:25;-7.30;99.90
28837;DHT22;50669;50.982;11.022;2022-12-18T01:48:57;-7.30;99.90
28837;DHT22;50669;50.982;11.022;2022-12-18T01:51:23;-7.30;99.90
28837;DHT22;50669;50.982;11.022;2022-12-18T01:53:49;-7.40;99.90
28837;DHT22;50669;50.982;11.022;2022-12-18T01:56:17;-7.40;99.90
28837;DHT22;50669;50.982;11.022;2022-12-18T01:59:01;-7.50;99.90
28837;DHT22;50669;50.982;11.022;2022-12-18T02:01:29;-7.40;99.90
28837;DHT22;50669;50.982;11.022;2022-12-18T02:04:26;-7.50;99.90
28837;DHT22;50669;50.982;11.022;2022-12-18T02:07:00;-7.60;99.90
28837;DHT22;50669;50.982;11.022;2022-12-18T02:09:40;-7.70;99.90
28837;DHT22;50669;50.982;11.022;2022-12-18T02:12:17;-7.80;99.90
28837;DHT22;50669;50.982;11.022;2022-12-18T02:20:32;-7.80;99.90
28837;DHT22;50669;50.982;11.022;2022-12-18T02:28:44;-7.80;99.90
28837;DHT22;50669;50.982;11.022;2022-12-18T02:31:16;-7.80;99.90
28837;DHT22;50669;50.982;11.022;2022-12-18T02:33:45;-7.80;99.90
28837;DHT22;50669;50.982;11.022;2022-12-18T02:36:12;-7.80;99.90
28837;DHT22;50669;50.982;11.022;2022-12-18T02:38:40;-7.90;99.90
28837;DHT22;50669;50.982;11.022;2022-12-18T02:41:10;-7.90;99.90
28837;DHT22;50669;50.982;11.022;2022-12-18T02:43:36;-7.90;99.90
28837;DHT22;50669;50.982;11.022;2022-12-18T02:46:26;-8.00;99.90
28837;DHT22;50669;50.982;11.022;2022-12-18T02:48:57;-8.20;99.90
28837;DHT22;50669;50.982;11.022;2022-12-18T02:51:31;-8.30;99.90
28837;DHT22;50669;50.982;11.022;2022-12-18T02:54:16;-8.30;99.90
28837;DHT22;50669;50.982;11.022;2022-12-18T02:56:53;-8.30;99.90
28837;DHT22;50669;50.982;11.022;2022-12-18T03:00:14;-8.30;99.90
28837;DHT22;50669;50.982;11.022;2022-12-18T03:02:39;-8.30;99.90
28837;DHT22;50669;50.982;11.022;2022-12-18T03:05:25;-8.20;99.90
28837;DHT22;50669;50.982;11.022;2022-12-18T03:08:10;-8.20;99.90
28837;DHT22;50669;50.982;11.022;2022-12-18T03:10:42;-8.20;99.90
28837;DHT22;50669;50.982;11.022;2022-12-18T03:13:13;-8.20;99.90
28837;DHT22;50669;50.982;11.022;2022-12-18T03:15:48;-8.20;99.90
28837;DHT22;50669;50.982;11.022;2022-12-18T03:18:29;-8.20;99.90
28837;DHT22;50669;50.982;11.022;2022-12-18T03:21:00;-8.20;99.90
28837;DHT22;50669;50.982;11.022;2022-12-18T03:23:35;-8.20;99.90
28837;DHT22;50669;50.982;11.022;2022-12-18T03:26:07;-8.20;99.90
28837;DHT22;50669;50.982;11.022;2022-12-18T03:28:37;-8.20;99.90
28837;DHT22;50669;50.982;11.022;2022-12-18T03:31:04;-8.30;99.90
28837;DHT22;50669;50.982;11.022;2022-12-18T03:33:37;-8.30;99.90
28837;DHT22;50669;50.982;11.022;2022-12-18T03:36:04;-8.40;99.90
28837;DHT22;50669;50.982;11.022;2022-12-18T03:38:30;-8.40;99.90
28837;DHT22;50669;50.982;11.022;2022-12-18T03:40:59;-8.50;99.90
28837;DHT22;50669;50.982;11.022;2022-12-18T03:43:34;-8.60;99.90
28837;DHT22;50669;50.982;11.022;2022-12-18T03:46:07;-8.60;99.90
28837;DHT22;50669;50.982;11.022;2022-12-18T03:48:44;-8.60;99.90
28837;DHT22;50669;50.982;11.022;2022-12-18T03:53:59;-8.60;99.90
28837;DHT22;50669;50.982;11.022;2022-12-18T03:56:33;-8.70;99.90
28837;DHT22;50669;50.982;11.022;2022-12-18T03:59:07;-8.70;99.90
28837;DHT22;50669;50.982;11.022;2022-12-18T04:01:38;-8.60;99.90
28837;DHT22;50669;50.982;11.022;2022-12-18T04:04:05;-8.60;99.90
28837;DHT22;50669;50.982;11.022;2022-12-18T04:06:32;-8.60;99.90
28837;DHT22;50669;50.982;11.022;2022-12-18T04:08:59;-8.60;99.90
28837;DHT22;50669;50.982;11.022;2022-12-18T04:11:25;-8.60;99.90
28837;DHT22;50669;50.982;11.022;2022-12-18T04:13:55;-8.60;99.90
28837;DHT22;50669;50.982;11.022;2022-12-18T04:16:23;-8.70;99.90
28837;DHT22;50669;50.982;11.022;2022-12-18T04:18:49;-8.70;99.90
28837;DHT22;50669;50.982;11.022;2022-12-18T04:21:17;-8.80;99.90
28837;DHT22;50669;50.982;11.022;2022-12-18T04:23:48;-8.90;99.90
28837;DHT22;50669;50.982;11.022;2022-12-18T04:26:13;-9.00;99.90
28837;DHT22;50669;50.982;11.022;2022-12-18T04:28:39;-9.00;99.90
28837;DHT22;50669;50.982;11.022;2022-12-18T04:31:05;-9.00;99.90
28837;DHT22;50669;50.982;11.022;2022-12-18T04:33:30;-9.10;99.90
28837;DHT22;50669;50.982;11.022;2022-12-18T04:35:56;-9.10;99.90
28837;DHT22;50669;50.982;11.022;2022-12-18T04:38:24;-9.10;99.90
28837;DHT22;50669;50.982;11.022;2022-12-18T04:40:49;-9.10;99.90
28837;DHT22;50669;50.982;11.022;2022-12-18T04:43:15;-9.10;99.90
28837;DHT22;50669;50.982;11.022;2022-12-18T04:45:41;-9.10;99.90
28837;DHT22;50669;50.982;11.022;2022-12-18T04:48:06;-9.10;99.90
28837;DHT22;50669;50.982;11.022;2022-12-18T04:50:32;-9.10;99.90
28837;DHT22;50669;50.982;11.022;2022-12-18T04:52:58;-9.10;99.90
28837;DHT22;50669;50.982;11.022;2022-12-18T04:55:26;-9.10;99.90
28837;DHT22;50669;50.982;11.022;2022-12-18T04:57:52;-9.10;99.90
28837;DHT22;50669;50.982;11.022;2022-12-18T05:00:18;-9.10;99.90
28837;DHT22;50669;50.982;11.022;2022-12-18T05:02:44;-9.10;99.90
28837;DHT22;50669;50.982;11.022;2022-12-18T05:05:14;-9.10;99.90
28837;DHT22;50669;50.982;11.022;2022-12-18T05:07:39;-9.20;99.90
28837;DHT22;50669;50.982;11.022;2022-12-18T05:10:05;-9.10;99.90
28837;DHT22;50669;50.982;11.022;2022-12-18T05:12:32;-9.10;99.90
28837;DHT22;50669;50.982;11.022;2022-12-18T05:14:57;-9.10;99.90
28837;DHT22;50669;50.982;11.022;2022-12-18T05:17:26;-9.10;99.90
28837;DHT22;50669;50.982;11.022;2022-12-18T05:19:51;-9.10;99.90
28837;DHT22;50669;50.982;11.022;2022-12-18T05:22:17;-9.10;99.90
28837;DHT22;50669;50.982;11.022;2022-12-18T05:24:45;-9.10;99.90
28837;DHT22;50669;50.982;11.022;2022-12-18T05:27:10;-9.10;99.90
28837;DHT22;50669;50.982;11.022;2022-12-18T05:29:36;-9.10;99.90
28837;DHT22;50669;50.982;11.022;2022-12-18T05:32:02;-9.10;99.90
28837;DHT22;50669;50.982;11.022;2022-12-18T05:34:28;-9.20;99.90
28837;DHT22;50669;50.982;11.022;2022-12-18T05:36:53;-9.10;99.90
28837;DHT22;50669;50.982;11.022;2022-12-18T05:39:21;-9.10;99.90
28837;DHT22;50669;50.982;11.022;2022-12-18T05:41:47;-9.20;99.90
28837;DHT22;50669;50.982;11.022;2022-12-18T05:44:13;-9.20;99.90
28837;DHT22;50669;50.982;11.022;2022-12-18T05:46:38;-9.10;99.90
28837;DHT22;50669;50.982;11.022;2022-12-18T05:49:04;-9.20;99.90
28837;DHT22;50669;50.982;11.022;2022-12-18T05:51:29;-9.20;99.90
28837;DHT22;50669;50.982;11.022;2022-12-18T05:53:57;-9.30;99.90
28837;DHT22;50669;50.982;11.022;2022-12-18T05:56:23;-9.30;99.90
28837;DHT22;50669;50.982;11.022;2022-12-18T05:58:53;-9.30;99.90
28837;DHT22;50669;50.982;11.022;2022-12-18T06:01:23;-9.40;99.90
28837;DHT22;50669;50.982;11.022;2022-12-18T06:03:52;-9.50;99.90
28837;DHT22;50669;50.982;11.022;2022-12-18T06:06:26;-9.60;99.90
28837;DHT22;50669;50.982;11.022;2022-12-18T06:08:55;-9.70;99.90
28837;DHT22;50669;50.982;11.022;2022-12-18T06:11:23;-9.80;99.90
28837;DHT22;50669;50.982;11.022;2022-12-18T06:13:55;-9.80;99.90
28837;DHT22;50669;50.982;11.022;2022-12-18T06:16:24;-9.90;99.90
28837;DHT22;50669;50.982;11.022;2022-12-18T06:18:49;-10.00;99.90
28837;DHT22;50669;50.982;11.022;2022-12-18T06:21:17;-10.10;99.90
28837;DHT22;50669;50.982;11.022;2022-12-18T06:23:43;-10.10;99.90
28837;DHT22;50669;50.982;11.022;2022-12-18T06:26:12;-10.10;99.90
28837;DHT22;50669;50.982;11.022;2022-12-18T06:28:41;-10.10;99.90
28837;DHT22;50669;50.982;11.022;2022-12-18T06:31:10;-10.10;99.90
28837;DHT22;50669;50.982;11.022;2022-12-18T06:33:36;-10.10;99.90
28837;DHT22;50669;50.982;11.022;2022-12-18T06:36:04;-10.20;99.90
28837;DHT22;50669;50.982;11.022;2022-12-18T06:38:34;-10.20;99.90
28837;DHT22;50669;50.982;11.022;2022-12-18T06:41:00;-10.20;99.90
28837;DHT22;50669;50.982;11.022;2022-12-18T06:43:26;-10.20;99.90
28837;DHT22;50669;50.982;11.022;2022-12-18T06:45:58;-10.30;99.90
28837;DHT22;50669;50.982;11.022;2022-12-18T06:48:24;-10.30;99.90
28837;DHT22;50669;50.982;11.022;2022-12-18T06:50:52;-10.40;99.90
28837;DHT22;50669;50.982;11.022;2022-12-18T06:53:20;-10.50;99.90
28837;DHT22;50669;50.982;11.022;2022-12-18T06:55:48;-10.50;99.90
28837;DHT22;50669;50.982;11.022;2022-12-18T06:58:16;-10.50;99.90
28837;DHT22;50669;50.982;11.022;2022-12-18T07:00:42;-10.60;99.90
28837;DHT22;50669;50.982;11.022;2022-12-18T07:03:10;-10.70;99.90
28837;DHT22;50669;50.982;11.022;2022-12-18T07:05:40;-10.70;99.90
28837;DHT22;50669;50.982;11.022;2022-12-18T07:08:06;-10.80;99.90
28837;DHT22;50669;50.982;11.022;2022-12-18T07:10:31;-10.80;99.90
28837;DHT22;50669;50.982;11.022;2022-12-18T07:12:57;-10.90;99.90
28837;DHT22;50669;50.982;11.022;2022-12-18T07:15:23;-10.90;99.90
28837;DHT22;50669;50.982;11.022;2022-12-18T07:17:48;-10.90;99.90
28837;DHT22;50669;50.982;11.022;2022-12-18T07:20:14;-10.80;99.90
28837;DHT22;50669;50.982;11.022;2022-12-18T07:22:40;-10.90;99.90
28837;DHT22;50669;50.982;11.022;2022-12-18T07:25:06;-10.90;99.90
28837;DHT22;50669;50.982;11.022;2022-12-18T07:27:35;-10.90;99.90
28837;DHT22;50669;50.982;11.022;2022-12-18T07:30:00;-10.90;99.90
28837;DHT22;50669;50.982;11.022;2022-12-18T07:32:26;-10.90;99.90
28837;DHT22;50669;50.982;11.022;2022-12-18T07:34:52;-10.90;99.90
28837;DHT22;50669;50.982;11.022;2022-12-18T07:37:20;-10.90;99.90
28837;DHT22;50669;50.982;11.022;2022-12-18T07:39:45;-10.90;99.90
28837;DHT22;50669;50.982;11.022;2022-12-18T07:42:11;-11.00;99.90
28837;DHT22;50669;50.982;11.022;2022-12-18T07:44:55;-11.00;99.90
28837;DHT22;50669;50.982;11.022;2022-12-18T07:47:23;-11.00;99.90
28837;DHT22;50669;50.982;11.022;2022-12-18T07:49:54;-11.00;99.90
28837;DHT22;50669;50.982;11.022;2022-12-18T07:52:20;-11.10;99.90
28837;DHT22;50669;50.982;11.022;2022-12-18T07:54:50;-11.10;99.90
28837;DHT22;50669;50.982;11.022;2022-12-18T07:57:16;-11.10;99.90
28837;DHT22;50669;50.982;11.022;2022-12-18T07:59:45;-11.10;99.90
28837;DHT22;50669;50.982;11.022;2022-12-18T08:02:10;-11.10;99.90
28837;DHT22;50669;50.982;11.022;2022-12-18T08:04:36;-11.00;99.90
28837;DHT22;50669;50.982;11.022;2022-12-18T08:07:02;-11.00;99.90
28837;DHT22;50669;50.982;11.022;2022-12-18T08:09:27;-10.90;99.90
28837;DHT22;50669;50.982;11.022;2022-12-18T08:11:53;-10.90;99.90
28837;DHT22;50669;50.982;11.022;2022-12-18T08:14:18;-10.90;99.90
28837;DHT22;50669;50.982;11.022;2022-12-18T08:16:44;-10.90;99.90
28837;DHT22;50669;50.982;11.022;2022-12-18T08:19:10;-10.80;99.90
28837;DHT22;50669;50.982;11.022;2022-12-18T08:21:35;-10.80;99.90
28837;DHT22;50669;50.982;11.022;2022-12-18T08:24:04;-10.80;99.90
28837;DHT22;50669;50.982;11.022;2022-12-18T08:26:30;-10.70;99.90
28837;DHT22;50669;50.982;11.022;2022-12-18T08:28:58;-10.70;99.90
28837;DHT22;50669;50.982;11.022;2022-12-18T08:31:28;-10.80;99.90
28837;DHT22;50669;50.982;11.022;2022-12-18T08:33:54;-10.70;99.90
28837;DHT22;50669;50.982;11.022;2022-12-18T08:36:20;-10.70;99.90
28837;DHT22;50669;50.982;11.022;2022-12-18T08:38:46;-10.70;99.90
28837;DHT22;50669;50.982;11.022;2022-12-18T08:41:15;-10.60;99.90
28837;DHT22;50669;50.982;11.022;2022-12-18T08:43:41;-10.60;99.90
28837;DHT22;50669;50.982;11.022;2022-12-18T08:46:27;-10.60;99.90
28837;DHT22;50669;50.982;11.022;2022-12-18T08:48:55;-10.50;99.90
28837;DHT22;50669;50.982;11.022;2022-12-18T08:51:23;-10.40;99.90
28837;DHT22;50669;50.982;11.022;2022-12-18T08:53:49;-10.20;99.90
28837;DHT22;50669;50.982;11.022;2022-12-18T08:56:15;-10.20;99.90
28837;DHT22;50669;50.982;11.022;2022-12-18T08:58:41;-10.20;99.90
28837;DHT22;50669;50.982;11.022;2022-12-18T09:01:09;-10.10;99.90
28837;DHT22;50669;50.982;11.022;2022-12-18T09:03:35;-10.10;99.90
28837;DHT22;50669;50.982;11.022;2022-12-18T09:06:01;-9.90;99.90
28837;DHT22;50669;50.982;11.022;2022-12-18T09:08:30;-9.80;99.90
28837;DHT22;50669;50.982;11.022;2022-12-18T09:10:58;-9.80;99.90
28837;DHT22;50669;50.982;11.022;2022-12-18T09:13:26;-9.70;99.90
28837;DHT22;50669;50.982;11.022;2022-12-18T09:15:53;-9.60;99.90
28837;DHT22;50669;50.982;11.022;2022-12-18T09:18:27;-9.60;99.90
28837;DHT22;50669;50.982;11.022;2022-12-18T09:20:52;-9.50;99.90
28837;DHT22;50669;50.982;11.022;2022-12-18T09:23:21;-9.40;99.90
28837;DHT22;50669;50.982;11.022;2022-12-18T09:25:47;-9.40;99.90
28837;DHT22;50669;50.982;11.022;2022-12-18T09:28:14;-9.30;99.90
28837;DHT22;50669;50.982;11.022;2022-12-18T09:30:43;-9.10;99.90
28837;DHT22;50669;50.982;11.022;2022-12-18T09:33:09;-9.10;99.90
28837;DHT22;50669;50.982;11.022;2022-12-18T09:35:39;-8.90;99.90
28837;DHT22;50669;50.982;11.022;2022-12-18T09:38:05;-8.90;99.90
28837;DHT22;50669;50.982;11.022;2022-12-18T09:40:36;-8.80;99.90
28837;DHT22;50669;50.982;11.022;2022-12-18T09:43:06;-8.70;99.90
28837;DHT22;50669;50.982;11.022;2022-12-18T09:45:42;-8.70;99.90
28837;DHT22;50669;50.982;11.022;2022-12-18T09:48:21;-8.60;99.90
28837;DHT22;50669;50.982;11.022;2022-12-18T09:50:50;-8.60;99.90
28837;DHT22;50669;50.982;11.022;2022-12-18T09:53:22;-8.50;99.90
28837;DHT22;50669;50.982;11.022;2022-12-18T09:55:53;-8.40;99.90
28837;DHT22;50669;50.982;11.022;2022-12-18T10:01:11;-8.10;99.90
28837;DHT22;50669;50.982;11.022;2022-12-18T10:03:37;-7.40;99.90
28837;DHT22;50669;50.982;11.022;2022-12-18T10:09:06;-5.50;99.90
28837;DHT22;50669;50.982;11.022;2022-12-18T10:17:29;-3.10;99.90
28837;DHT22;50669;50.982;11.022;2022-12-18T10:28:19;-0.50;99.90
28837;DHT22;50669;50.982;11.022;2022-12-18T10:30:45;0.00;99.90
28837;DHT22;50669;50.982;11.022;2022-12-18T10:33:21;0.40;99.90
28837;DHT22;50669;50.982;11.022;2022-12-18T10:35:50;0.30;99.90
28837;DHT22;50669;50.982;11.022;2022-12-18T10:43:23;-0.60;99.90
28837;DHT22;50669;50.982;11.022;2022-12-18T10:51:03;-0.30;99.90
28837;DHT22;50669;50.982;11.022;2022-12-18T10:53:31;-0.10;99.90
28837;DHT22;50669;50.982;11.022;2022-12-18T10:56:00;-0.30;99.90
28837;DHT22;50669;50.982;11.022;2022-12-18T10:58:35;-0.10;99.90
28837;DHT22;50669;50.982;11.022;2022-12-18T11:01:17;-0.20;99.90
28837;DHT22;50669;50.982;11.022;2022-12-18T11:06:16;-1.20;99.90
28837;DHT22;50669;50.982;11.022;2022-12-18T11:08:46;-1.40;99.90
28837;DHT22;50669;50.982;11.022;2022-12-18T11:11:23;-1.50;99.90
28837;DHT22;50669;50.982;11.022;2022-12-18T11:16:33;-3.30;99.90
28837;DHT22;50669;50.982;11.022;2022-12-18T11:21:55;-3.20;99.90
28837;DHT22;50669;50.982;11.022;2022-12-18T11:24:31;-3.00;99.90
28837;DHT22;50669;50.982;11.022;2022-12-18T11:27:05;-3.00;99.90
28837;DHT22;50669;50.982;11.022;2022-12-18T11:29:37;-3.20;99.90
28837;DHT22;50669;50.982;11.022;2022-12-18T11:34:44;-1.80;99.90
28837;DHT22;50669;50.982;11.022;2022-12-18T11:37:11;-1.80;99.90
28837;DHT22;50669;50.982;11.022;2022-12-18T11:39:49;-1.90;99.90
28837;DHT22;50669;50.982;11.022;2022-12-18T11:42:19;-1.70;99.90
28837;DHT22;50669;50.982;11.022;2022-12-18T11:50:16;-2.50;99.90
28837;DHT22;50669;50.982;11.022;2022-12-18T11:52:46;-2.90;99.90
28837;DHT22;50669;50.982;11.022;2022-12-18T11:55:15;-3.00;99.90
28837;DHT22;50669;50.982;11.022;2022-12-18T12:00:22;-3.70;99.90
28837;DHT22;50669;50.982;11.022;2022-12-18T12:05:57;-4.00;99.90
28837;DHT22;50669;50.982;11.022;2022-12-18T12:39:23;-4.60;99.90
28837;DHT22;50669;50.982;11.022;2022-12-18T12:41:52;-4.60;99.90
28837;DHT22;50669;50.982;11.022;2022-12-18T12:44:46;-4.60;99.90
28837;DHT22;50669;50.982;11.022;2022-12-18T12:49:51;-4.60;99.90
28837;DHT22;50669;50.982;11.022;2022-12-18T12:54:54;-4.80;99.90
28837;DHT22;50669;50.982;11.022;2022-12-18T12:57:43;-4.90;99.90
28837;DHT22;50669;50.982;11.022;2022-12-18T13:00:16;-5.10;99.90
28837;DHT22;50669;50.982;11.022;2022-12-18T13:05:24;-5.00;99.90
28837;DHT22;50669;50.982;11.022;2022-12-18T13:07:52;-5.00;99.90
28837;DHT22;50669;50.982;11.022;2022-12-18T13:20:38;-5.20;99.90
28837;DHT22;50669;50.982;11.022;2022-12-18T13:25:55;-5.20;99.90
28837;DHT22;50669;50.982;11.022;2022-12-18T13:31:15;-5.10;99.90
28837;DHT22;50669;50.982;11.022;2022-12-18T13:34:23;-5.10;99.90
28837;DHT22;50669;50.982;11.022;2022-12-18T13:36:50;-5.10;99.90
28837;DHT22;50669;50.982;11.022;2022-12-18T13:41:50;-5.00;99.90
28837;DHT22;50669;50.982;11.022;2022-12-18T13:46:59;-4.90;99.90
28837;DHT22;50669;50.982;11.022;2022-12-18T13:49:39;-4.90;99.90
28837;DHT22;50669;50.982;11.022;2022-12-18T13:52:24;-5.00;99.90
28837;DHT22;50669;50.982;11.022;2022-12-18T13:54:58;-5.00;99.90
28837;DHT22;50669;50.982;11.022;2022-12-18T13:57:37;-5.10;99.90
28837;DHT22;50669;50.982;11.022;2022-12-18T14:02:48;-5.40;99.90
28837;DHT22;50669;50.982;11.022;2022-12-18T14:05:40;-5.70;99.90
28837;DHT22;50669;50.982;11.022;2022-12-18T14:08:16;-5.70;99.90
28837;DHT22;50669;50.982;11.022;2022-12-18T14:10:44;-5.70;99.90
28837;DHT22;50669;50.982;11.022;2022-12-18T14:13:15;-5.80;99.90
28837;DHT22;50669;50.982;11.022;2022-12-18T14:15:46;-5.90;99.90
28837;DHT22;50669;50.982;11.022;2022-12-18T14:18:20;-5.90;99.90
28837;DHT22;50669;50.982;11.022;2022-12-18T14:20:50;-6.10;99.90
28837;DHT22;50669;50.982;11.022;2022-12-18T14:23:29;-6.10;99.90
28837;DHT22;50669;50.982;11.022;2022-12-18T14:25:55;-6.20;99.90
28837;DHT22;50669;50.982;11.022;2022-12-18T14:28:23;-6.30;99.90
28837;DHT22;50669;50.982;11.022;2022-12-18T14:30:49;-6.40;99.90
28837;DHT22;50669;50.982;11.022;2022-12-18T14:33:33;-6.50;99.90
28837;DHT22;50669;50.982;11.022;2022-12-18T14:41:00;-6.80;99.90
28837;DHT22;50669;50.982;11.022;2022-12-18T14:43:28;-6.90;99.90
28837;DHT22;50669;50.982;11.022;2022-12-18T14:45:54;-7.00;99.90
28837;DHT22;50669;50.982;11.022;2022-12-18T14:48:25;-7.00;99.90
28837;DHT22;50669;50.982;11.022;2022-12-18T14:56:04;-7.00;99.90
28837;DHT22;50669;50.982;11.022;2022-12-18T14:58:36;-6.90;99.90
28837;DHT22;50669;50.982;11.022;2022-12-18T15:01:02;-7.00;99.90
28837;DHT22;50669;50.982;11.022;2022-12-18T15:03:27;-7.00;99.90
28837;DHT22;50669;50.982;11.022;2022-12-18T15:05:53;-7.10;99.90
28837;DHT22;50669;50.982;11.022;2022-12-18T15:08:35;-7.10;99.90
28837;DHT22;50669;50.982;11.022;2022-12-18T15:11:01;-7.20;99.90
28837;DHT22;50669;50.982;11.022;2022-12-18T15:13:26;-7.20;99.90
28837;DHT22;50669;50.982;11.022;2022-12-18T15:15:55;-7.20;99.90
28837;DHT22;50669;50.982;11.022;2022-12-18T15:18:31;-7.20;99.90
28837;DHT22;50669;50.982;11.022;2022-12-18T15:21:00;-7.20;99.90
28837;DHT22;50669;50.982;11.022;2022-12-18T15:26:14;-7.10;99.90
28837;DHT22;50669;50.982;11.022;2022-12-18T15:28:47;-7.10;99.90
28837;DHT22;50669;50.982;11.022;2022-12-18T15:36:20;-7.20;99.90
28837;DHT22;50669;50.982;11.022;2022-12-18T15:38:50;-7.20;99.90
28837;DHT22;50669;50.982;11.022;2022-12-18T15:41:19;-7.10;99.90
28837;DHT22;50669;50.982;11.022;2022-12-18T15:43:48;-7.10;99.90
28837;DHT22;50669;50.982;11.022;2022-12-18T15:46:16;-7.10;99.90
28837;DHT22;50669;50.982;11.022;2022-12-18T15:48:49;-7.00;99.90
28837;DHT22;50669;50.982;11.022;2022-12-18T15:51:31;-7.00;99.90
28837;DHT22;50669;50.982;11.022;2022-12-18T15:54:00;-7.00;99.90
28837;DHT22;50669;50.982;11.022;2022-12-18T15:56:27;-6.90;99.90
28837;DHT22;50669;50.982;11.022;2022-12-18T15:59:14;-6.90;99.90
28837;DHT22;50669;50.982;11.022;2022-12-18T16:01:41;-6.90;99.90
28837;DHT22;50669;50.982;11.022;2022-12-18T16:04:08;-6.80;99.90
28837;DHT22;50669;50.982;11.022;2022-12-18T16:06:34;-6.80;99.90
28837;DHT22;50669;50.982;11.022;2022-12-18T16:09:00;-6.90;99.90
28837;DHT22;50669;50.982;11.022;2022-12-18T16:11:30;-6.90;99.90
28837;DHT22;50669;50.982;11.022;2022-12-18T16:14:21;-7.00;99.90
28837;DHT22;50669;50.982;11.022;2022-12-18T16:16:56;-7.00;99.90
28837;DHT22;50669;50.982;11.022;2022-12-18T16:19:24;-7.00;99.90
28837;DHT22;50669;50.982;11.022;2022-12-18T16:21:54;-7.00;99.90
28837;DHT22;50669;50.982;11.022;2022-12-18T16:24:23;-7.00;99.90
28837;DHT22;50669;50.982;11.022;2022-12-18T16:26:52;-7.10;99.90
28837;DHT22;50669;50.982;11.022;2022-12-18T16:29:18;-7.10;99.90
28837;DHT22;50669;50.982;11.022;2022-12-18T16:31:44;-7.10;99.90
28837;DHT22;50669;50.982;11.022;2022-12-18T16:36:37;-7.10;99.90
28837;DHT22;50669;50.982;11.022;2022-12-18T16:39:04;-7.10;99.90
28837;DHT22;50669;50.982;11.022;2022-12-18T16:41:30;-7.00;99.90
28837;DHT22;50669;50.982;11.022;2022-12-18T16:43:59;-7.00;99.90
28837;DHT22;50669;50.982;11.022;2022-12-18T16:46:25;-7.00;99.90
28837;DHT22;50669;50.982;11.022;2022-12-18T16:48:51;-7.00;99.90
28837;DHT22;50669;50.982;11.022;2022-12-18T16:51:17;-7.00;99.90
28837;DHT22;50669;50.982;11.022;2022-12-18T16:53:42;-7.00;99.90
28837;DHT22;50669;50.982;11.022;2022-12-18T16:56:08;-7.00;99.90
28837;DHT22;50669;50.982;11.022;2022-12-18T16:58:34;-7.00;99.90
28837;DHT22;50669;50.982;11.022;2022-12-18T17:00:59;-7.00;99.90
28837;DHT22;50669;50.982;11.022;2022-12-18T17:03:25;-7.10;99.90
28837;DHT22;50669;50.982;11.022;2022-12-18T17:05:51;-7.10;99.90
28837;DHT22;50669;50.982;11.022;2022-12-18T17:08:16;-7.10;99.90
28837;DHT22;50669;50.982;11.022;2022-12-18T17:10:42;-7.10;99.90
28837;DHT22;50669;50.982;11.022;2022-12-18T17:13:08;-7.10;99.90
28837;DHT22;50669;50.982;11.022;2022-12-18T17:15:36;-7.10;99.90
28837;DHT22;50669;50.982;11.022;2022-12-18T17:18:02;-7.10;99.90
28837;DHT22;50669;50.982;11.022;2022-12-18T17:20:29;-7.10;99.90
28837;DHT22;50669;50.982;11.022;2022-12-18T17:22:55;-7.10;99.90
28837;DHT22;50669;50.982;11.022;2022-12-18T17:25:23;-7.00;99.90
28837;DHT22;50669;50.982;11.022;2022-12-18T17:27:50;-7.00;99.90
28837;DHT22;50669;50.982;11.022;2022-12-18T17:30:18;-7.00;99.90
28837;DHT22;50669;50.982;11.022;2022-12-18T17:32:46;-6.90;99.90
28837;DHT22;50669;50.982;11.022;2022-12-18T17:35:11;-6.90;99.90
28837;DHT22;50669;50.982;11.022;2022-12-18T17:37:39;-6.80;99.90
28837;DHT22;50669;50.982;11.022;2022-12-18T17:40:05;-6.90;99.90
28837;DHT22;50669;50.982;11.022;2022-12-18T17:42:31;-6.80;99.90
28837;DHT22;50669;50.982;11.022;2022-12-18T17:44:57;-6.80;99.90
28837;DHT22;50669;50.982;11.022;2022-12-18T17:47:23;-6.90;99.90
28837;DHT22;50669;50.982;11.022;2022-12-18T17:49:48;-6.90;99.90
28837;DHT22;50669;50.982;11.022;2022-12-18T17:52:14;-6.90;99.90
28837;DHT22;50669;50.982;11.022;2022-12-18T17:54:42;-6.90;99.90
28837;DHT22;50669;50.982;11.022;2022-12-18T17:57:08;-7.00;99.90